Time;durP1;ratioP1;P1;durP2;ratioP2;P2;SDS_P1;SDS_P2;PMS_P1;PMS_P2;Temp;Humidity;BMP_temperature;BMP_pressure;BME280_temperature;BME280_humidity;BME280_pressure;Samples;Min_cycle;Max_cycle;Signal;HPM_P1;HPM_P2
2021/03/10 00:00:17;;;;;;;;;;;;;;;1.38;93.28;101847.84;5058775;28;901;-78
2021/03/10 00:02:42;;;;;;;;;;;;;;;1.38;93.16;101841.59;5077124;28;1981;-78
2021/03/10 00:05:09;;;;;;;;;;;;;;;1.30;93.20;101846.44;5079174;28;1902;-78
2021/03/10 00:07:35;;;;;;;;;;;;;;;1.30;93.11;101843.69;5077666;28;1933;-77
2021/03/10 00:10:02;;;;;;;;;;;;;;;1.34;93.23;101832.31;5078614;28;1285;-78
2021/03/10 00:12:27;;;;;;;;;;;;;;;1.36;93.24;101835.59;5078722;28;955;-78
2021/03/10 00:14:53;;;;;;;;;;;;;;;1.32;92.99;101843.44;5079262;28;947;-78
2021/03/10 00:17:19;;;;;;;;;;;;;;;1.31;92.80;101837.19;5072074;28;2182;-77
2021/03/10 00:19:45;;;;;;;;;;;;;;;1.31;93.24;101834.47;5070116;28;1823;-77
2021/03/10 00:22:10;;;;;;;;;;;;;;;1.34;92.95;101841.28;5069823;28;1015;-77
2021/03/10 00:24:36;;;;;;;;;;;;;;;1.34;93.13;101838.56;5063935;28;1894;-77
2021/03/10 00:27:02;;;;;;;;;;;;;;;1.33;93.03;101847.78;5058867;28;858;-78
2021/03/10 00:29:28;;;;;;;;;;;;;;;1.34;92.80;101844.00;5062358;28;1282;-78
2021/03/10 00:31:53;;;;;;;;;;;;;;;1.34;92.77;101845.91;5073730;28;2024;-78
2021/03/10 00:34:18;;;;;;;;;;;;;;;1.33;92.79;101850.53;5077695;28;1028;-78
2021/03/10 00:36:43;;;;;;;;;;;;;;;1.35;92.77;101842.94;5068056;28;2125;-78
2021/03/10 00:39:09;;;;;;;;;;;;;;;1.37;92.73;101843.50;5057524;28;1271;-78
2021/03/10 00:41:34;;;;;;;;;;;;;;;1.40;92.96;101828.53;5058292;28;835;-78
2021/03/10 00:44:00;;;;;;;;;;;;;;;1.42;93.11;101845.44;5058019;28;866;-78
2021/03/10 00:46:25;;;;;;;;;;;;;;;1.39;92.62;101844.06;5065320;28;2104;-78
2021/03/10 00:48:50;;;;;;;;;;;;;;;1.34;92.43;101837.75;5077201;28;1340;-78
2021/03/10 00:51:16;;;;;;;;;;;;;;;1.33;92.18;101850.53;5078388;28;823;-78
2021/03/10 00:53:42;;;;;;;;;;;;;;;1.31;92.11;101848.09;5078101;28;1201;-78
2021/03/10 00:56:08;;;;;;;;;;;;;;;1.31;92.30;101850.81;5088477;28;1918;-78
2021/03/10 00:58:33;;;;;;;;;;;;;;;1.28;92.19;101848.59;5060522;28;1266;-78
2021/03/10 01:00:58;;;;;;;;;;;;;;;1.27;92.09;101848.84;5062972;28;2131;-78
2021/03/10 01:03:23;;;;;;;;;;;;;;;1.29;92.23;101846.69;5065811;28;856;-78
2021/03/10 01:05:49;;;;;;;;;;;;;;;1.25;92.18;101856.44;5069151;28;2141;-78
2021/03/10 01:08:14;;;;;;;;;;;;;;;1.23;91.87;101855.84;5084134;28;2222;-78
2021/03/10 01:10:40;;;;;;;;;;;;;;;1.24;92.11;101860.22;5076847;28;856;-78
2021/03/10 01:13:05;;;;;;;;;;;;;;;1.24;92.26;101861.03;5077034;28;907;-78
2021/03/10 01:15:31;;;;;;;;;;;;;;;1.22;92.09;101860.47;5076003;28;2146;-78
2021/03/10 01:17:56;;;;;;;;;;;;;;;1.23;92.29;101859.41;5076513;28;1266;-78
2021/03/10 01:20:23;;;;;;;;;;;;;;;1.22;92.34;101855.03;5076754;28;1030;-78
2021/03/10 01:22:48;;;;;;;;;;;;;;;1.21;92.23;101855.28;5076861;28;899;-78
2021/03/10 01:25:14;;;;;;;;;;;;;;;1.22;92.41;101849.59;5076318;28;1963;-78
2021/03/10 01:27:40;;;;;;;;;;;;;;;1.22;92.51;101857.75;5075454;28;2195;-78
2021/03/10 01:30:11;;;;;;;;;;;;;;;1.24;92.03;101858.31;5076743;28;1642;-78
2021/03/10 01:32:37;;;;;;;;;;;;;;;1.30;92.57;101856.50;5059525;28;2162;-78
2021/03/10 01:35:04;;;;;;;;;;;;;;;1.34;92.30;101859.53;5056491;28;871;-78
2021/03/10 01:37:31;;;;;;;;;;;;;;;1.37;92.55;101867.16;5057194;28;2130;-78
2021/03/10 01:39:57;;;;;;;;;;;;;;;1.39;92.36;101874.00;5075736;28;2188;-78
2021/03/10 01:42:23;;;;;;;;;;;;;;;1.39;92.55;101873.19;5076972;28;1060;-78
2021/03/10 01:44:49;;;;;;;;;;;;;;;1.39;92.38;101875.91;5075752;28;1972;-78
2021/03/10 01:47:15;;;;;;;;;;;;;;;1.37;92.42;101873.44;5076212;28;831;-78
2021/03/10 01:49:41;;;;;;;;;;;;;;;1.35;92.16;101861.16;5076528;28;1353;-77
2021/03/10 01:52:06;;;;;;;;;;;;;;;1.33;91.94;101855.97;5075573;28;1964;-78
2021/03/10 01:54:31;;;;;;;;;;;;;;;1.33;92.23;101849.72;5075945;28;932;-78
2021/03/10 01:56:57;;;;;;;;;;;;;;;1.28;92.16;101859.47;5076071;28;991;-78
2021/03/10 01:59:23;;;;;;;;;;;;;;;1.27;92.32;101849.66;5075588;28;1301;-78
2021/03/10 02:01:49;;;;;;;;;;;;;;;1.27;92.39;101846.94;5073591;28;2053;-78
2021/03/10 02:04:14;;;;;;;;;;;;;;;1.29;92.64;101843.97;5075796;28;829;-78
2021/03/10 02:07:17;;;;;;;;;;;;;;;1.27;92.55;101832.50;5074577;28;2040;-78
2021/03/10 02:10:00;;;;;;;;;;;;;;;1.29;92.43;101835.78;5075030;28;1302;-78
2021/03/10 02:12:57;;;;;;;;;;;;;;;1.31;92.52;101839.91;5075754;28;995;-78
2021/03/10 02:15:35;;;;;;;;;;;;;;;1.28;92.45;101836.84;5071999;28;1764;-78
2021/03/10 02:18:09;;;;;;;;;;;;;;;1.28;92.44;101832.25;5055350;28;1365;-77
2021/03/10 02:20:42;;;;;;;;;;;;;;;1.27;92.19;101835.25;5054955;28;818;-78
2021/03/10 02:23:29;;;;;;;;;;;;;;;1.25;92.32;101830.03;5055292;28;1011;-77
2021/03/10 02:26:16;;;;;;;;;;;;;;;1.26;92.54;101837.16;5067564;28;2230;-77
2021/03/10 02:28:42;;;;;;;;;;;;;;;1.23;92.30;101831.38;5074865;28;1369;-77
2021/03/10 02:31:11;;;;;;;;;;;;;;;1.24;92.51;101822.13;5074278;28;2208;-77
2021/03/10 02:33:37;;;;;;;;;;;;;;;1.23;92.52;101818.59;5074999;28;1066;-77
2021/03/10 02:36:08;;;;;;;;;;;;;;;1.23;92.43;101804.16;5075490;28;1045;-77
2021/03/10 02:38:34;;;;;;;;;;;;;;;1.21;92.30;101795.44;5074812;28;1266;-78
2021/03/10 02:41:00;;;;;;;;;;;;;;;1.20;92.46;101796.53;5074030;28;1945;-77
2021/03/10 02:43:27;;;;;;;;;;;;;;;1.20;92.24;101805.50;5061295;28;1925;-77
2021/03/10 02:45:54;;;;;;;;;;;;;;;1.20;92.26;101813.66;5057779;28;2044;-77
2021/03/10 02:48:22;;;;;;;;;;;;;;;1.18;92.08;101801.38;5090198;28;1301;-77
2021/03/10 02:50:49;;;;;;;;;;;;;;;1.18;92.13;101791.34;5074784;28;801;-77
2021/03/10 02:53:15;;;;;;;;;;;;;;;1.20;92.06;101796.53;5074948;28;1047;-77
2021/03/10 02:55:40;;;;;;;;;;;;;;;1.22;92.10;101799.81;5074530;28;1936;-77
2021/03/10 02:58:11;;;;;;;;;;;;;;;1.21;91.83;101795.44;5074237;28;1864;-78
2021/03/10 03:00:37;;;;;;;;;;;;;;;1.22;92.04;101807.97;5074238;28;1918;-78
2021/03/10 03:03:03;;;;;;;;;;;;;;;1.21;91.98;101812.59;5074516;28;872;-78
2021/03/10 03:05:29;;;;;;;;;;;;;;;1.20;92.16;101812.84;5074338;28;1898;-78
2021/03/10 03:07:56;;;;;;;;;;;;;;;1.22;91.93;101811.50;5074186;28;1357;-77
2021/03/10 03:10:27;;;;;;;;;;;;;;;1.25;92.09;101810.19;5074565;28;932;-77
2021/03/10 03:12:53;;;;;;;;;;;;;;;1.25;92.12;101810.19;5076779;28;876;-77
2021/03/10 03:15:23;;;;;;;;;;;;;;;1.24;92.17;101813.97;5078196;28;973;-77
2021/03/10 03:17:49;;;;;;;;;;;;;;;1.20;91.74;101807.41;5058995;28;1906;-77
2021/03/10 03:20:18;;;;;;;;;;;;;;;1.17;91.91;101811.47;5057088;28;809;-77
2021/03/10 03:22:46;;;;;;;;;;;;;;;1.15;91.98;101812.81;5058624;28;1003;-77
2021/03/10 03:25:17;;;;;;;;;;;;;;;1.12;91.93;101812.25;5058559;28;1963;-77
2021/03/10 03:27:46;;;;;;;;;;;;;;;1.08;92.02;101813.81;5057925;28;1241;-77
2021/03/10 03:30:13;;;;;;;;;;;;;;;1.06;92.02;101812.44;5058258;28;1368;-77
2021/03/10 03:32:41;;;;;;;;;;;;;;;1.06;92.32;101810.53;5075715;28;1850;-77
2021/03/10 03:35:07;;;;;;;;;;;;;;;1.07;92.43;101811.34;5078394;28;884;-77
2021/03/10 03:37:33;;;;;;;;;;;;;;;1.07;92.35;101808.63;5078455;28;1023;-77
2021/03/10 03:39:59;;;;;;;;;;;;;;;1.06;92.32;101807.81;5069083;28;1939;-77
2021/03/10 03:42:24;;;;;;;;;;;;;;;1.05;92.46;101810.78;5057824;28;901;-78
2021/03/10 03:44:50;;;;;;;;;;;;;;;1.04;92.47;101803.69;5057789;28;1975;-77
2021/03/10 03:47:15;;;;;;;;;;;;;;;1.05;92.94;101805.34;5072610;28;1942;-77
2021/03/10 03:49:46;;;;;;;;;;;;;;;1.02;92.68;101803.97;5077539;28;1833;-77
2021/03/10 03:52:11;;;;;;;;;;;;;;;1.00;92.63;101805.28;5077545;28;940;-77
2021/03/10 03:54:37;;;;;;;;;;;;;;;0.98;92.88;101815.63;5081249;28;2291;-78
2021/03/10 03:57:02;;;;;;;;;;;;;;;0.93;92.91;101817.22;5057441;28;892;-77
2021/03/10 03:59:28;;;;;;;;;;;;;;;0.91;92.90;101807.66;5057663;28;1287;-77
2021/03/10 04:01:53;;;;;;;;;;;;;;;0.90;93.19;101806.00;5058551;28;1990;-76
2021/03/10 04:04:18;;;;;;;;;;;;;;;0.91;93.10;101807.66;5057814;28;880;-77
2021/03/10 04:06:48;;;;;;;;;;;;;;;0.94;93.45;101810.69;5057487;28;1951;-78
2021/03/10 04:09:14;;;;;;;;;;;;;;;0.96;93.37;101802.25;5057002;28;1262;-77
2021/03/10 04:11:47;;;;;;;;;;;;;;;0.98;93.42;101794.66;5057153;28;1039;-77
2021/03/10 04:14:13;;;;;;;;;;;;;;;0.98;93.58;101799.28;5057485;28;938;-77
2021/03/10 04:16:38;;;;;;;;;;;;;;;0.97;93.33;101800.34;5064634;28;2056;-77
2021/03/10 04:19:05;;;;;;;;;;;;;;;0.94;93.58;101797.06;5077419;28;1380;-77
2021/03/10 04:21:30;;;;;;;;;;;;;;;0.91;93.53;101788.59;5078185;28;853;-77
2021/03/10 04:23:57;;;;;;;;;;;;;;;0.87;93.33;101785.59;5078232;28;1894;-77
2021/03/10 04:26:22;;;;;;;;;;;;;;;0.86;93.27;101791.28;5077790;28;1897;-77
2021/03/10 04:28:47;;;;;;;;;;;;;;;0.87;93.51;101782.06;5077173;28;1267;-76
2021/03/10 04:31:13;;;;;;;;;;;;;;;0.90;93.95;101786.94;5075180;28;1874;-76
2021/03/10 04:33:38;;;;;;;;;;;;;;;0.90;93.62;101785.06;5056871;28;996;-77
2021/03/10 04:36:04;;;;;;;;;;;;;;;0.93;93.61;101784.56;5057434;28;951;-77
2021/03/10 04:38:29;;;;;;;;;;;;;;;0.92;93.74;101779.38;5056865;28;1372;-77
2021/03/10 04:40:55;;;;;;;;;;;;;;;0.94;93.65;101774.50;5056996;28;904;-77
2021/03/10 04:43:21;;;;;;;;;;;;;;;0.94;93.90;101786.19;5057280;28;856;-77
2021/03/10 04:45:46;;;;;;;;;;;;;;;0.94;93.65;101785.38;5060077;28;2268;-77
2021/03/10 04:48:11;;;;;;;;;;;;;;;0.94;93.78;101788.09;5056598;28;1270;-77
2021/03/10 04:50:37;;;;;;;;;;;;;;;0.90;93.77;101789.69;5057173;28;793;-77
2021/03/10 04:53:02;;;;;;;;;;;;;;;0.85;93.73;101795.91;5057196;28;1034;-77
2021/03/10 04:55:27;;;;;;;;;;;;;;;0.83;93.62;101805.38;5056697;28;881;-77
2021/03/10 04:57:52;;;;;;;;;;;;;;;0.81;93.58;101793.94;5056319;28;1783;-78
2021/03/10 05:00:18;;;;;;;;;;;;;;;0.75;93.74;101804.75;5056965;28;2072;-76
2021/03/10 05:02:44;;;;;;;;;;;;;;;0.72;93.74;101802.53;5075389;28;1974;-77
2021/03/10 05:05:10;;;;;;;;;;;;;;;0.72;94.04;101804.44;5076916;28;1886;-77
2021/03/10 05:07:36;;;;;;;;;;;;;;;0.71;94.23;101809.06;5076348;28;884;-77
2021/03/10 05:10:04;;;;;;;;;;;;;;;0.72;94.09;101807.16;5076519;28;1258;-77
2021/03/10 05:12:30;;;;;;;;;;;;;;;0.72;94.07;101801.72;5076465;28;1036;-77
2021/03/10 05:14:57;;;;;;;;;;;;;;;0.72;94.20;101793.56;5062319;28;2090;-77
2021/03/10 05:17:23;;;;;;;;;;;;;;;0.72;94.02;101793.56;5056837;28;2114;-77
2021/03/10 05:19:48;;;;;;;;;;;;;;;0.71;93.99;101789.19;5055967;28;1392;-78
2021/03/10 05:22:13;;;;;;;;;;;;;;;0.71;93.94;101778.31;5055945;28;971;-78
2021/03/10 05:24:38;;;;;;;;;;;;;;;0.64;93.78;101778.53;5056120;28;1886;-78
2021/03/10 05:27:04;;;;;;;;;;;;;;;0.55;93.73;101778.16;5055806;28;949;-76
2021/03/10 05:29:30;;;;;;;;;;;;;;;0.53;94.21;101780.28;5060800;28;1969;-77
2021/03/10 05:31:55;;;;;;;;;;;;;;;0.46;94.38;101784.28;5074636;28;1866;-77
2021/03/10 05:34:20;;;;;;;;;;;;;;;0.35;94.21;101781.44;5076115;28;858;-77
2021/03/10 05:36:46;;;;;;;;;;;;;;;0.26;94.63;101788.38;5075545;28;814;-78
2021/03/10 05:39:12;;;;;;;;;;;;;;;0.28;94.80;101782.72;5075453;28;1270;-77
2021/03/10 05:41:38;;;;;;;;;;;;;;;0.25;95.19;101775.06;5074849;28;1981;-77
2021/03/10 05:44:04;;;;;;;;;;;;;;;0.24;95.20;101770.69;5076201;28;837;-78
2021/03/10 05:46:30;;;;;;;;;;;;;;;0.25;95.41;101762.28;5075452;28;1942;-77
2021/03/10 05:48:55;;;;;;;;;;;;;;;0.23;95.47;101760.91;5075368;28;1270;-78
2021/03/10 05:51:20;;;;;;;;;;;;;;;0.20;95.41;101756.78;5076089;28;1099;-77
2021/03/10 05:53:46;;;;;;;;;;;;;;;0.23;95.51;101761.72;5075549;28;980;-77
2021/03/10 05:56:13;;;;;;;;;;;;;;;0.22;95.42;101770.13;5075254;28;1831;-77
2021/03/10 05:58:39;;;;;;;;;;;;;;;0.24;95.50;101767.97;5074352;28;2049;-78
2021/03/10 06:01:04;;;;;;;;;;;;;;;0.30;95.88;101764.25;5059749;28;1887;-77
2021/03/10 06:03:30;;;;;;;;;;;;;;;0.35;95.93;101761.59;5075857;28;872;-77
2021/03/10 06:06:04;;;;;;;;;;;;;;;0.42;95.75;101767.66;5075020;28;1898;-77
2021/03/10 06:08:34;;;;;;;;;;;;;;;0.47;95.86;101764.19;5075161;28;1364;-77
2021/03/10 06:11:00;;;;;;;;;;;;;;;0.48;95.44;101768.53;5074321;28;916;-77
2021/03/10 06:13:32;;;;;;;;;;;;;;;0.51;95.44;101768.84;5074146;28;1831;-77
2021/03/10 06:16:00;;;;;;;;;;;;;;;0.53;95.31;101763.16;5055771;28;1661;-77
2021/03/10 06:18:30;;;;;;;;;;;;;;;0.54;95.46;101757.47;5054895;28;1353;-78
2021/03/10 06:21:18;;;;;;;;;;;;;;;0.57;95.20;101758.84;5055414;28;980;-78
2021/03/10 06:23:53;;;;;;;;;;;;;;;0.60;95.02;101763.78;5055352;28;872;-78
2021/03/10 06:26:24;;;;;;;;;;;;;;;0.62;95.06;101764.34;5055664;28;1882;-78
2021/03/10 06:28:50;;;;;;;;;;;;;;;0.67;94.93;101755.44;5065529;28;2062;-78
2021/03/10 06:31:23;;;;;;;;;;;;;;;0.70;95.11;101752.22;5069282;28;1811;-78
2021/03/10 06:34:04;;;;;;;;;;;;;;;0.76;94.78;101762.06;5055268;28;870;-77
2021/03/10 06:36:34;;;;;;;;;;;;;;;0.79;94.38;101761.56;5055614;28;869;-78
2021/03/10 06:39:00;;;;;;;;;;;;;;;0.83;94.06;101757.28;5054840;28;1294;-78
2021/03/10 06:41:34;;;;;;;;;;;;;;;0.87;93.96;101763.00;5055288;28;864;-78
2021/03/10 06:44:00;;;;;;;;;;;;;;;0.96;93.78;101755.22;5055482;28;2356;-77
2021/03/10 06:46:26;;;;;;;;;;;;;;;1.00;93.53;101748.97;5054766;28;1902;-77
2021/03/10 06:49:00;;;;;;;;;;;;;;;1.02;92.98;101756.91;5053443;28;1282;-78
2021/03/10 06:51:27;;;;;;;;;;;;;;;1.03;92.93;101753.09;5056098;28;893;-77
2021/03/10 06:53:53;;;;;;;;;;;;;;;1.06;92.67;101760.75;5055416;28;829;-78
2021/03/10 06:56:29;;;;;;;;;;;;;;;1.01;92.29;101766.97;5055155;28;1902;-77
2021/03/10 06:59:06;;;;;;;;;;;;;;;1.00;92.97;101765.31;5054464;28;1282;-78
2021/03/10 07:01:39;;;;;;;;;;;;;;;1.01;92.72;101760.72;5067219;28;2066;-77
2021/03/10 07:04:08;;;;;;;;;;;;;;;1.05;92.36;101761.81;5075353;28;852;-77
2021/03/10 07:06:34;;;;;;;;;;;;;;;1.08;92.24;101762.13;5075512;28;2179;-79
2021/03/10 07:09:03;;;;;;;;;;;;;;;1.09;91.90;101765.66;5075887;28;1234;-78
2021/03/10 07:11:29;;;;;;;;;;;;;;;1.11;91.60;101767.06;5076565;28;892;-78
2021/03/10 07:13:54;;;;;;;;;;;;;;;1.20;91.58;101772.03;5076924;28;891;-78
2021/03/10 07:16:20;;;;;;;;;;;;;;;1.21;91.45;101771.78;5067674;28;2098;-79
2021/03/10 07:18:47;;;;;;;;;;;;;;;1.29;91.48;101762.31;5075905;28;1270;-78
2021/03/10 07:21:22;;;;;;;;;;;;;;;1.37;90.85;101777.34;5068927;28;2094;-77
2021/03/10 07:23:51;;;;;;;;;;;;;;;1.35;90.28;101772.19;5055607;28;876;-77
2021/03/10 07:26:19;;;;;;;;;;;;;;;1.39;90.20;101770.56;5054757;28;1906;-77
2021/03/10 07:28:55;;;;;;;;;;;;;;;1.44;90.06;101784.22;5054566;28;1278;-76
2021/03/10 07:31:23;;;;;;;;;;;;;;;1.60;89.39;101773.47;5054749;28;2016;-77
2021/03/10 07:33:53;;;;;;;;;;;;;;;1.66;89.51;101769.69;5056674;28;1957;-77
2021/03/10 07:36:31;;;;;;;;;;;;;;;1.80;88.50;101772.78;5055311;28;2366;-77
2021/03/10 07:38:56;;;;;;;;;;;;;;;1.79;87.92;101773.88;5054655;28;1393;-77
2021/03/10 07:41:32;;;;;;;;;;;;;;;1.73;88.13;101783.09;5054248;28;817;-77
2021/03/10 07:43:58;;;;;;;;;;;;;;;1.93;87.32;101779.69;5058914;28;833;-77
2021/03/10 07:46:25;;;;;;;;;;;;;;;2.04;86.95;101781.38;5054789;28;2275;-77
2021/03/10 07:48:53;;;;;;;;;;;;;;;1.95;87.08;101783.78;5054172;28;2088;-76
2021/03/10 07:51:26;;;;;;;;;;;;;;;1.97;85.99;101784.38;5055861;28;898;-78
2021/03/10 07:53:51;;;;;;;;;;;;;;;1.95;85.61;101781.06;5055825;28;801;-77
2021/03/10 07:56:27;;;;;;;;;;;;;;;2.05;84.96;101783.03;5054959;28;825;-78
2021/03/10 07:58:52;;;;;;;;;;;;;;;2.11;85.41;101772.97;5062043;28;2154;-78
2021/03/10 08:01:19;;;;;;;;;;;;;;;2.26;85.16;101779.31;5060883;28;1992;-78
2021/03/10 08:03:44;;;;;;;;;;;;;;;2.35;84.84;101781.56;5060688;28;2152;-78
2021/03/10 08:06:10;;;;;;;;;;;;;;;2.22;83.64;101783.69;5060410;28;1902;-78
2021/03/10 08:08:38;;;;;;;;;;;;;;;2.30;83.94;101782.38;5059858;28;1282;-78
2021/03/10 08:11:12;;;;;;;;;;;;;;;2.31;83.04;101777.72;5062529;28;2178;-78
2021/03/10 08:13:38;;;;;;;;;;;;;;;2.58;83.22;101774.84;5069780;28;2154;-78
2021/03/10 08:16:05;;;;;;;;;;;;;;;2.91;82.09;101778.25;5082895;28;2147;-79
2021/03/10 08:18:34;;;;;;;;;;;;;;;3.03;81.89;101769.78;5064750;28;1361;-78
2021/03/10 08:21:19;;;;;;;;;;;;;;;3.07;79.78;101771.72;5059975;28;1828;-77
2021/03/10 08:23:46;;;;;;;;;;;;;;;3.12;79.80;101768.97;5056545;28;1394;-78
2021/03/10 08:26:11;;;;;;;;;;;;;;;3.07;80.92;101768.97;5057635;28;1963;-78
2021/03/10 08:28:40;;;;;;;;;;;;;;;3.02;81.19;101768.97;5073671;28;1918;-78
2021/03/10 08:31:10;;;;;;;;;;;;;;;3.10;80.98;101762.19;5064191;28;1968;-78
2021/03/10 08:33:47;;;;;;;;;;;;;;;3.05;80.30;101756.72;5062981;28;2015;-78
2021/03/10 08:36:14;;;;;;;;;;;;;;;2.98;80.77;101755.03;5076199;28;2152;-78
2021/03/10 08:38:41;;;;;;;;;;;;;;;2.93;80.97;101762.41;5060896;28;1878;-78
2021/03/10 08:41:08;;;;;;;;;;;;;;;3.12;81.28;101751.81;5060835;28;1918;-78
2021/03/10 08:43:33;;;;;;;;;;;;;;;3.17;80.39;101754.53;5058229;28;1058;-78
2021/03/10 08:45:59;;;;;;;;;;;;;;;3.05;79.62;101756.72;5061596;28;1902;-77
2021/03/10 08:48:32;;;;;;;;;;;;;;;3.06;80.43;101752.88;5077554;28;1349;-78
2021/03/10 08:51:01;;;;;;;;;;;;;;;3.19;80.90;101755.88;5077727;28;846;-78
2021/03/10 08:53:26;;;;;;;;;;;;;;;3.40;79.47;101753.16;5076776;28;1788;-78
2021/03/10 08:55:52;;;;;;;;;;;;;;;3.57;78.61;101747.44;5073791;28;1867;-78
2021/03/10 08:58:21;;;;;;;;;;;;;;;3.48;78.82;101738.97;5056357;28;1737;-78
2021/03/10 09:00:47;;;;;;;;;;;;;;;3.51;78.87;101735.72;5057537;28;2070;-77
2021/03/10 09:03:13;;;;;;;;;;;;;;;3.49;78.69;101732.41;5057214;28;782;-77
2021/03/10 09:05:40;;;;;;;;;;;;;;;3.55;78.24;101734.06;5056992;28;1898;-77
2021/03/10 09:08:07;;;;;;;;;;;;;;;3.96;77.32;101724.97;5055929;28;1279;-78
2021/03/10 09:10:34;;;;;;;;;;;;;;;4.07;76.26;101726.56;5059216;28;1815;-78
2021/03/10 09:13:00;;;;;;;;;;;;;;;4.12;77.33;101725.75;5057568;28;813;-77
2021/03/10 09:15:28;;;;;;;;;;;;;;;4.38;75.86;101723.72;5059178;28;1742;-78
2021/03/10 09:18:03;;;;;;;;;;;;;;;4.58;74.99;101713.78;5076323;28;1266;-77
2021/03/10 09:20:30;;;;;;;;;;;;;;;4.87;74.77;101702.94;5076739;28;1066;-77
2021/03/10 09:22:57;;;;;;;;;;;;;;;4.48;74.40;101706.44;5077377;28;882;-77
2021/03/10 09:25:36;;;;;;;;;;;;;;;4.24;75.17;101700.81;5071920;28;1902;-77
2021/03/10 09:28:02;;;;;;;;;;;;;;;4.35;75.70;101693.41;5068306;28;2299;-78
2021/03/10 09:30:30;;;;;;;;;;;;;;;4.48;74.85;101695.50;5065789;28;944;-77
2021/03/10 09:32:55;;;;;;;;;;;;;;;4.55;74.70;101687.84;5068552;28;1891;-78
2021/03/10 09:35:30;;;;;;;;;;;;;;;4.15;75.77;101703.31;5085959;28;991;-77
2021/03/10 09:38:04;;;;;;;;;;;;;;;4.08;75.31;101689.13;5082912;28;1380;-77
2021/03/10 09:40:44;;;;;;;;;;;;;;;4.16;75.49;101688.56;5077095;28;1983;-76
2021/03/10 09:43:14;;;;;;;;;;;;;;;4.49;75.44;101697.97;5060933;28;2391;-76
2021/03/10 09:45:40;;;;;;;;;;;;;;;4.57;75.10;101701.19;5061044;28;2059;-77
2021/03/10 09:48:07;;;;;;;;;;;;;;;4.49;74.85;101700.69;5056574;28;2262;-77
2021/03/10 09:50:36;;;;;;;;;;;;;;;4.63;74.25;101684.47;5073970;28;1763;-76
2021/03/10 09:53:22;;;;;;;;;;;;;;;4.68;73.79;101675.44;5066249;28;2267;-76
2021/03/10 09:55:48;;;;;;;;;;;;;;;5.39;72.54;101673.22;5073379;28;2471;-77
2021/03/10 09:58:13;;;;;;;;;;;;;;;5.77;69.62;101667.91;5068575;28;2242;-76
2021/03/10 10:00:41;;;;;;;;;;;;;;;6.52;68.09;101674.69;5074039;28;2094;-76
2021/03/10 10:03:07;;;;;;;;;;;;;;;6.35;67.71;101655.97;5075119;28;886;-76
2021/03/10 10:05:38;;;;;;;;;;;;;;;6.31;68.19;101666.72;5065442;28;2418;-77
2021/03/10 10:08:05;;;;;;;;;;;;;;;6.59;66.66;101656.75;5059435;28;2358;-77
2021/03/10 10:10:32;;;;;;;;;;;;;;;6.77;66.94;101655.09;5065993;28;1978;-76
2021/03/10 10:12:58;;;;;;;;;;;;;;;6.01;67.72;101648.75;5069426;28;2389;-76
2021/03/10 10:15:30;;;;;;;;;;;;;;;5.86;69.13;101657.94;5073128;28;2277;-76
2021/03/10 10:17:57;;;;;;;;;;;;;;;5.48;70.67;101644.09;5075655;28;1381;-77
2021/03/10 10:20:25;;;;;;;;;;;;;;;5.50;70.16;101647.34;5068619;28;2335;-76
2021/03/10 10:22:53;;;;;;;;;;;;;;;5.57;70.13;101645.13;5059196;28;1907;-77
2021/03/10 10:25:19;;;;;;;;;;;;;;;5.85;68.89;101642.63;5059608;28;2184;-77
2021/03/10 10:27:46;;;;;;;;;;;;;;;6.15;68.06;101641.44;5060590;28;1853;-77
2021/03/10 10:30:14;;;;;;;;;;;;;;;6.07;68.51;101638.53;5069237;28;2436;-77
2021/03/10 10:32:41;;;;;;;;;;;;;;;6.17;67.91;101633.72;5055159;28;2233;-77
2021/03/10 10:35:07;;;;;;;;;;;;;;;5.82;68.43;101638.53;5055117;28;2140;-76
2021/03/10 10:37:33;;;;;;;;;;;;;;;5.69;68.80;101638.41;5054482;28;1240;-76
2021/03/10 10:39:58;;;;;;;;;;;;;;;5.50;69.60;101630.13;5054570;28;1354;-76
2021/03/10 10:42:24;;;;;;;;;;;;;;;5.52;70.45;101630.63;5070276;28;2177;-76
2021/03/10 10:44:49;;;;;;;;;;;;;;;5.95;69.59;101614.25;5055761;28;2180;-76
2021/03/10 10:47:14;;;;;;;;;;;;;;;5.91;69.16;101618.69;5055175;28;2047;-76
2021/03/10 10:49:39;;;;;;;;;;;;;;;5.99;69.11;101618.88;5067808;28;2120;-76
2021/03/10 10:52:05;;;;;;;;;;;;;;;6.16;68.46;101615.66;5054121;28;2415;-76
2021/03/10 10:54:30;;;;;;;;;;;;;;;5.76;69.40;101601.34;5053866;28;2384;-75
2021/03/10 10:56:55;;;;;;;;;;;;;;;5.70;69.56;101615.38;5071873;28;2265;-76
2021/03/10 10:59:21;;;;;;;;;;;;;;;5.93;69.08;101616.47;5061654;28;1962;-76
2021/03/10 11:01:47;;;;;;;;;;;;;;;6.06;69.05;101614.97;5071183;28;1892;-76
2021/03/10 11:04:12;;;;;;;;;;;;;;;6.03;68.85;101608.94;5074707;28;865;-76
2021/03/10 11:06:38;;;;;;;;;;;;;;;6.09;69.06;101617.94;5073725;28;1957;-76
2021/03/10 11:09:04;;;;;;;;;;;;;;;6.19;68.94;101611.50;5055260;28;1282;-76
2021/03/10 11:11:29;;;;;;;;;;;;;;;6.24;68.77;101611.44;5055270;28;884;-76
2021/03/10 11:13:55;;;;;;;;;;;;;;;6.54;68.51;101612.94;5055005;28;900;-76
2021/03/10 11:16:25;;;;;;;;;;;;;;;6.45;68.76;101613.88;5057169;28;1935;-76
2021/03/10 11:18:51;;;;;;;;;;;;;;;6.82;67.47;101613.03;5074962;28;1254;-77
2021/03/10 11:21:17;;;;;;;;;;;;;;;7.10;66.47;101630.41;5075494;28;885;-77
2021/03/10 11:23:42;;;;;;;;;;;;;;;6.80;67.01;101618.03;5074297;28;980;-77
2021/03/10 11:26:07;;;;;;;;;;;;;;;6.81;66.63;101630.63;5070401;28;2105;-76
2021/03/10 11:28:33;;;;;;;;;;;;;;;6.91;66.25;101629.66;5064570;28;2206;-77
2021/03/10 11:30:58;;;;;;;;;;;;;;;6.71;66.75;101617.06;5068754;28;2392;-76
2021/03/10 11:33:23;;;;;;;;;;;;;;;6.32;68.21;101623.69;5063006;28;2273;-76
2021/03/10 11:35:49;;;;;;;;;;;;;;;6.54;68.09;101617.56;5078047;28;956;-76
2021/03/10 11:38:14;;;;;;;;;;;;;;;6.56;67.85;101620.88;5093873;28;1379;-76
2021/03/10 11:40:41;;;;;;;;;;;;;;;6.34;68.55;101622.25;5059485;28;2033;-77
2021/03/10 11:43:06;;;;;;;;;;;;;;;6.51;68.65;101607.22;5069420;28;2222;-77
2021/03/10 11:45:31;;;;;;;;;;;;;;;6.82;67.75;101610.28;5058515;28;1890;-76
2021/03/10 11:47:57;;;;;;;;;;;;;;;6.86;67.63;101597.59;5068605;28;1969;-76
2021/03/10 11:50:22;;;;;;;;;;;;;;;7.03;67.02;101583.31;5077617;28;2065;-76
2021/03/10 11:52:48;;;;;;;;;;;;;;;7.00;67.42;101585.84;5069136;28;2396;-76
2021/03/10 11:55:13;;;;;;;;;;;;;;;7.03;67.02;101574.25;5057635;28;845;-77
2021/03/10 11:57:41;;;;;;;;;;;;;;;6.70;67.94;101566.84;5060492;28;1923;-77
2021/03/10 12:00:07;;;;;;;;;;;;;;;6.65;68.84;101571.59;5077066;28;1874;-76
2021/03/10 12:02:33;;;;;;;;;;;;;;;6.43;69.03;101567.53;5078733;28;1583;-77
2021/03/10 12:04:59;;;;;;;;;;;;;;;6.51;68.76;101561.38;5078043;28;1893;-76
2021/03/10 12:07:24;;;;;;;;;;;;;;;6.46;68.69;101566.13;5077878;28;1036;-76
2021/03/10 12:09:50;;;;;;;;;;;;;;;6.59;69.01;101551.63;5078846;28;1431;-76
2021/03/10 12:12:16;;;;;;;;;;;;;;;6.40;69.29;101544.28;5078391;28;1000;-76
2021/03/10 12:14:41;;;;;;;;;;;;;;;6.34;70.36;101547.38;5072176;28;1742;-75
2021/03/10 12:17:06;;;;;;;;;;;;;;;6.08;71.01;101536.00;5058498;28;865;-76
2021/03/10 12:19:32;;;;;;;;;;;;;;;6.06;71.43;101540.97;5058490;28;1269;-77
2021/03/10 12:21:58;;;;;;;;;;;;;;;6.08;71.12;101531.31;5058526;28;889;-76
2021/03/10 12:24:23;;;;;;;;;;;;;;;6.15;71.65;101541.91;5056965;28;897;-76
2021/03/10 12:26:48;;;;;;;;;;;;;;;6.28;71.23;101534.84;5057254;28;1918;-76
2021/03/10 12:29:14;;;;;;;;;;;;;;;6.35;71.08;101527.88;5071149;28;2402;-76
2021/03/10 12:31:39;;;;;;;;;;;;;;;6.40;71.61;101540.69;5075831;28;2362;-76
2021/03/10 12:34:05;;;;;;;;;;;;;;;6.67;70.05;101536.44;5067005;28;1964;-76
2021/03/10 12:36:30;;;;;;;;;;;;;;;6.84;70.59;101530.38;5061091;28;2420;-75
2021/03/10 12:38:55;;;;;;;;;;;;;;;6.62;70.29;101525.53;5057022;28;1290;-76
2021/03/10 12:41:21;;;;;;;;;;;;;;;6.42;71.17;101522.03;5068947;28;2336;-76
2021/03/10 12:43:46;;;;;;;;;;;;;;;6.33;71.76;101519.16;5078700;28;816;-76
2021/03/10 12:46:11;;;;;;;;;;;;;;;6.48;71.25;101515.34;5065721;28;2502;-76
2021/03/10 12:48:37;;;;;;;;;;;;;;;6.47;71.37;101508.22;5062470;28;2272;-76
2021/03/10 12:51:03;;;;;;;;;;;;;;;6.16;72.48;101505.13;5060160;28;2068;-75
2021/03/10 12:53:28;;;;;;;;;;;;;;;6.22;72.21;101499.28;5076658;28;851;-76
2021/03/10 12:55:53;;;;;;;;;;;;;;;6.14;72.77;101483.53;5067461;28;2129;-76
2021/03/10 12:58:19;;;;;;;;;;;;;;;6.18;72.55;101481.00;5063326;28;2141;-76
2021/03/10 13:00:44;;;;;;;;;;;;;;;6.16;72.49;101495.00;5057049;28;806;-75